Time;durP1;ratioP1;P1;durP2;ratioP2;P2;SDS_P1;SDS_P2;PMS_P1;PMS_P2;Temp;Humidity;BMP_temperature;BMP_pressure;BME280_temperature;BME280_humidity;BME280_pressure;Samples;Min_cycle;Max_cycle;Signal;HPM_P1;HPM_P2
2024/03/02 00:00:13;;;;;;;263.10;182.07;;;19.20;77.80;;;;;;4988641;28;20023;-69
2024/03/02 00:02:42;;;;;;;264.92;182.90;;;19.20;77.60;;;;;;5050447;23;20121;-65
2024/03/02 00:05:11;;;;;;;261.92;181.45;;;19.20;77.60;;;;;;5073285;28;20017;-66
2024/03/02 00:07:36;;;;;;;261.40;184.98;;;19.20;77.80;;;;;;5072875;28;20388;-67
2024/03/02 00:10:10;;;;;;;265.48;181.27;;;19.20;77.80;;;;;;5073457;28;20024;-67
2024/03/02 00:12:36;;;;;;;260.33;176.98;;;19.20;77.70;;;;;;5061046;28;20029;-66
2024/03/02 00:15:06;;;;;;;256.83;178.88;;;19.20;77.90;;;;;;5055674;28;20029;-67
2024/03/02 00:17:32;;;;;;;252.18;174.77;;;19.20;78.00;;;;;;5064691;28;20048;-67
2024/03/02 00:19:58;;;;;;;253.00;175.55;;;19.20;77.90;;;;;;5071962;28;20060;-66
2024/03/02 00:22:23;;;;;;;252.38;175.00;;;19.30;77.70;;;;;;5062227;28;20384;-67
2024/03/02 00:24:49;;;;;;;251.48;173.02;;;19.30;77.80;;;;;;5061068;28;20029;-66
2024/03/02 00:27:17;;;;;;;246.25;172.75;;;19.30;77.60;;;;;;5060884;28;20036;-64
2024/03/02 00:29:43;;;;;;;247.05;170.90;;;19.30;77.60;;;;;;5072355;28;20427;-67
2024/03/02 00:32:15;;;;;;;241.95;168.15;;;19.30;77.50;;;;;;5062736;28;20112;-66
2024/03/02 00:34:41;;;;;;;249.70;172.75;;;19.20;77.40;;;;;;5061302;28;20384;-66
2024/03/02 00:37:07;;;;;;;244.57;167.20;;;19.30;77.50;;;;;;5061197;28;20028;-65
2024/03/02 00:39:33;;;;;;;238.52;167.05;;;19.30;77.30;;;;;;5063507;28;20025;-66
2024/03/02 00:41:58;;;;;;;235.63;167.60;;;19.30;77.40;;;;;;5064122;28;20032;-65
2024/03/02 00:44:34;;;;;;;239.13;166.07;;;19.30;77.40;;;;;;5062255;28;20058;-66
2024/03/02 00:47:00;;;;;;;229.10;159.50;;;19.30;77.30;;;;;;5061051;28;20025;-66
2024/03/02 00:49:28;;;;;;;234.98;163.93;;;19.30;77.20;;;;;;5062362;28;20602;-67
2024/03/02 00:51:54;;;;;;;232.48;160.38;;;19.30;77.30;;;;;;5064619;28;20064;-67
2024/03/02 00:54:23;;;;;;;231.60;160.15;;;19.30;77.40;;;;;;5063014;28;20029;-67
2024/03/02 00:56:49;;;;;;;227.45;156.20;;;19.30;77.30;;;;;;5061278;28;20079;-67
2024/03/02 00:59:15;;;;;;;226.60;159.35;;;19.30;77.40;;;;;;5061390;28;20025;-66
2024/03/02 01:01:42;;;;;;;226.27;155.88;;;19.30;77.50;;;;;;5064426;28;20031;-66
2024/03/02 01:04:07;;;;;;;228.27;155.77;;;19.30;77.60;;;;;;5073818;28;20407;-66
2024/03/02 01:06:33;;;;;;;227.75;157.25;;;19.30;77.70;;;;;;5062244;28;20017;-66
2024/03/02 01:08:59;;;;;;;228.55;156.00;;;19.30;77.90;;;;;;5060956;28;20499;-65
2024/03/02 01:11:25;;;;;;;223.88;153.88;;;19.30;77.90;;;;;;5061796;28;20021;-66
2024/03/02 01:13:51;;;;;;;224.90;154.68;;;19.30;78.00;;;;;;5064291;28;20020;-66
2024/03/02 01:16:17;;;;;;;221.55;152.43;;;19.30;78.00;;;;;;5063308;28;20043;-65
2024/03/02 01:18:43;;;;;;;212.80;149.50;;;19.30;78.10;;;;;;5061122;28;20497;-65
2024/03/02 01:21:09;;;;;;;215.77;149.32;;;19.30;78.30;;;;;;5067961;28;20029;-65
2024/03/02 01:23:34;;;;;;;211.20;150.25;;;19.30;78.50;;;;;;5062967;28;20089;-66
2024/03/02 01:26:00;;;;;;;217.48;150.20;;;19.20;78.60;;;;;;5063591;28;20098;-66
2024/03/02 01:28:26;;;;;;;210.52;147.23;;;19.30;78.70;;;;;;5069646;28;20385;-66
2024/03/02 01:30:51;;;;;;;212.10;146.52;;;19.30;78.90;;;;;;5065506;28;20048;-66
2024/03/02 01:33:19;;;;;;;214.60;147.63;;;19.30;78.90;;;;;;5063118;28;20032;-66
2024/03/02 01:35:45;;;;;;;215.93;150.32;;;19.30;78.90;;;;;;5062962;28;20387;-67
2024/03/02 01:38:10;;;;;;;206.70;143.63;;;19.30;79.00;;;;;;5070493;28;20021;-65
2024/03/02 01:40:37;;;;;;;208.98;144.32;;;19.30;79.20;;;;;;5058935;28;20021;-67
2024/03/02 01:43:04;;;;;;;205.82;143.85;;;19.30;79.10;;;;;;5058322;28;20219;-64
2024/03/02 01:45:30;;;;;;;199.68;139.85;;;19.30;79.00;;;;;;5069176;28;20028;-65
2024/03/02 01:47:58;;;;;;;207.20;143.93;;;19.30;78.80;;;;;;5063370;28;20025;-65
2024/03/02 01:50:29;;;;;;;199.52;139.02;;;19.30;78.50;;;;;;5061784;28;20082;-66
2024/03/02 01:52:55;;;;;;;202.60;142.50;;;19.30;78.60;;;;;;5059904;28;20464;-65
2024/03/02 01:55:21;;;;;;;201.82;138.18;;;19.30;78.90;;;;;;5060007;28;20553;-66
2024/03/02 01:57:48;;;;;;;197.27;135.70;;;19.30;78.90;;;;;;5061433;28;20028;-66
2024/03/02 02:00:14;;;;;;;200.80;139.35;;;19.30;78.70;;;;;;5060364;28;20105;-66
2024/03/02 02:02:40;;;;;;;200.98;138.85;;;19.30;78.80;;;;;;5064647;28;20075;-66
2024/03/02 02:05:06;;;;;;;195.60;133.48;;;19.30;79.00;;;;;;5058083;28;20492;-67
2024/03/02 02:07:31;;;;;;;197.88;138.10;;;19.40;79.00;;;;;;5068989;28;20503;-66
2024/03/02 02:09:57;;;;;;;198.73;136.13;;;19.30;78.90;;;;;;5061523;28;20103;-67
2024/03/02 02:12:23;;;;;;;189.68;132.05;;;19.30;78.80;;;;;;5059124;28;20039;-67
2024/03/02 02:14:50;;;;;;;192.25;131.98;;;19.30;78.90;;;;;;5058117;28;20040;-66
2024/03/02 02:17:16;;;;;;;185.85;129.93;;;19.30;78.90;;;;;;5059412;28;20118;-66
2024/03/02 02:19:42;;;;;;;189.60;131.30;;;19.30;78.90;;;;;;5061779;28;20070;-65
2024/03/02 02:22:11;;;;;;;187.95;130.68;;;19.30;79.00;;;;;;5061358;28;20021;-66
2024/03/02 02:24:41;;;;;;;185.68;130.00;;;19.40;79.10;;;;;;5058006;28;20021;-66
2024/03/02 02:27:06;;;;;;;182.20;129.88;;;19.30;79.20;;;;;;5065424;28;20032;-65
2024/03/02 02:29:32;;;;;;;182.85;127.38;;;19.30;79.10;;;;;;5060661;28;20028;-66
2024/03/02 02:31:57;;;;;;;183.20;127.32;;;19.40;79.10;;;;;;5060888;28;20488;-66
2024/03/02 02:34:23;;;;;;;179.18;126.38;;;19.30;79.20;;;;;;5059285;28;20097;-66
2024/03/02 02:36:49;;;;;;;178.38;123.90;;;19.30;79.20;;;;;;5062833;28;20032;-66
2024/03/02 02:39:17;;;;;;;182.00;124.47;;;19.30;79.20;;;;;;5060312;28;20025;-65
2024/03/02 02:41:43;;;;;;;181.00;125.40;;;19.30;79.30;;;;;;5061229;28;20024;-66
2024/03/02 02:44:11;;;;;;;171.05;120.25;;;19.30;79.40;;;;;;5061297;28;20086;-66
2024/03/02 02:46:37;;;;;;;172.07;120.65;;;19.30;79.40;;;;;;5057910;28;20092;-65
2024/03/02 02:49:03;;;;;;;172.68;121.28;;;19.30;79.50;;;;;;5057663;28;20021;-65
2024/03/02 02:51:29;;;;;;;171.00;122.03;;;19.30;79.50;;;;;;5068018;28;20055;-66
2024/03/02 02:53:54;;;;;;;172.02;120.65;;;19.30;79.50;;;;;;5061128;28;20044;-65
2024/03/02 02:56:20;;;;;;;167.40;119.30;;;19.30;79.60;;;;;;5067534;28;20031;-65
2024/03/02 02:58:46;;;;;;;163.10;118.32;;;19.30;79.70;;;;;;5062340;28;20487;-65
2024/03/02 03:01:11;;;;;;;174.32;122.18;;;19.30;79.80;;;;;;5060311;28;20021;-62
2024/03/02 03:03:37;;;;;;;166.45;117.43;;;19.30;79.80;;;;;;5060849;28;20033;-66
2024/03/02 03:06:03;;;;;;;165.57;114.75;;;19.30;79.80;;;;;;5061126;28;20029;-64
2024/03/02 03:08:28;;;;;;;165.48;116.30;;;19.30;79.80;;;;;;5058327;28;20328;-65
2024/03/02 03:10:54;;;;;;;166.32;115.40;;;19.30;79.80;;;;;;5058011;28;20032;-65
2024/03/02 03:13:20;;;;;;;164.25;115.30;;;19.20;79.90;;;;;;5070698;28;20024;-65
2024/03/02 03:15:45;;;;;;;162.15;113.78;;;19.30;79.90;;;;;;5064947;28;20024;-66
2024/03/02 03:18:11;;;;;;;160.00;111.65;;;19.30;79.80;;;;;;5064355;28;20188;-65
2024/03/02 03:20:37;;;;;;;161.85;113.60;;;19.20;79.90;;;;;;5060851;28;20025;-65
2024/03/02 03:23:03;;;;;;;154.80;109.70;;;19.30;79.90;;;;;;5060824;28;20021;-63
2024/03/02 03:25:29;;;;;;;156.80;108.78;;;19.30;79.90;;;;;;5062799;28;20032;-66
2024/03/02 03:27:55;;;;;;;154.15;110.38;;;19.30;79.90;;;;;;5064471;28;20024;-67
2024/03/02 03:30:21;;;;;;;154.77;110.72;;;19.30;79.90;;;;;;5062761;28;20054;-67
2024/03/02 03:32:48;;;;;;;159.73;110.88;;;19.30;79.90;;;;;;5059192;28;20032;-66
2024/03/02 03:35:15;;;;;;;155.30;109.47;;;19.30;79.90;;;;;;5060651;28;20024;-65
2024/03/02 03:37:40;;;;;;;155.98;108.40;;;19.30;79.90;;;;;;5064540;28;20032;-66
2024/03/02 03:40:13;;;;;;;153.98;107.65;;;19.30;80.00;;;;;;5063916;28;20085;-65
2024/03/02 03:42:39;;;;;;;146.82;106.07;;;19.30;80.00;;;;;;5061047;28;20032;-65
2024/03/02 03:45:06;;;;;;;149.55;103.93;;;19.30;79.90;;;;;;5068058;28;20453;-64
2024/03/02 03:47:32;;;;;;;149.68;105.65;;;19.30;79.80;;;;;;5063545;28;20017;-66
2024/03/02 03:49:58;;;;;;;144.80;103.03;;;19.30;79.90;;;;;;5064182;28;20103;-66
2024/03/02 03:52:24;;;;;;;148.73;105.35;;;19.30;79.80;;;;;;5061751;28;20150;-65
2024/03/02 03:54:49;;;;;;;148.05;105.25;;;19.30;79.90;;;;;;5060902;28;20025;-66
2024/03/02 03:57:16;;;;;;;147.35;104.10;;;19.30;79.90;;;;;;5060591;28;20104;-65
2024/03/02 03:59:42;;;;;;;144.48;103.32;;;19.30;79.90;;;;;;5063764;28;20495;-66
2024/03/02 04:02:08;;;;;;;143.55;99.22;;;19.30;80.00;;;;;;5071859;28;20499;-66
2024/03/02 04:04:33;;;;;;;141.00;99.88;;;19.30;80.00;;;;;;5060645;28;20021;-65
2024/03/02 04:06:59;;;;;;;145.85;101.28;;;19.30;80.10;;;;;;5060175;28;20029;-66
2024/03/02 04:09:25;;;;;;;141.02;99.30;;;19.30;80.10;;;;;;5061674;28;20033;-65
2024/03/02 04:11:51;;;;;;;138.98;98.32;;;19.30;80.20;;;;;;5063250;28;20028;-66
2024/03/02 04:14:17;;;;;;;141.88;100.22;;;19.30;80.20;;;;;;5062510;28;20031;-65
2024/03/02 04:16:42;;;;;;;141.02;98.70;;;19.30;80.30;;;;;;5060319;28;20032;-65
2024/03/02 04:19:08;;;;;;;138.48;97.72;;;19.30;80.40;;;;;;5059868;28;20021;-66
2024/03/02 04:21:34;;;;;;;132.50;95.15;;;19.30;80.50;;;;;;5062248;28;20083;-65
2024/03/02 04:23:59;;;;;;;135.50;96.25;;;19.30;80.50;;;;;;5062649;28;20399;-66
2024/03/02 04:26:26;;;;;;;139.18;97.78;;;19.30;80.60;;;;;;5061188;28;20492;-65
2024/03/02 04:28:52;;;;;;;131.88;94.68;;;19.30;80.60;;;;;;5060149;28;20047;-66
2024/03/02 04:31:18;;;;;;;128.48;92.00;;;19.30;80.70;;;;;;5068475;28;20159;-66
2024/03/02 04:33:44;;;;;;;135.07;94.80;;;19.30;80.80;;;;;;5063105;28;20112;-64
2024/03/02 04:36:09;;;;;;;131.95;93.53;;;19.30;80.80;;;;;;5062948;28;20032;-64
2024/03/02 04:38:35;;;;;;;128.35;90.97;;;19.30;80.70;;;;;;5059827;28;20025;-66
2024/03/02 04:41:01;;;;;;;131.18;94.38;;;19.30;80.70;;;;;;5057890;28;20025;-65
2024/03/02 04:43:27;;;;;;;131.65;92.43;;;19.30;80.80;;;;;;5069440;28;20055;-66
2024/03/02 04:45:52;;;;;;;125.40;90.90;;;19.30;80.70;;;;;;5062613;28;20082;-67
2024/03/02 04:48:19;;;;;;;126.78;89.72;;;19.30;80.70;;;;;;5061208;28;20495;-66
2024/03/02 04:50:44;;;;;;;125.15;90.60;;;19.30;80.70;;;;;;5058072;28;20420;-63
2024/03/02 04:53:10;;;;;;;125.40;90.28;;;19.30;80.70;;;;;;5058535;28;20029;-66
2024/03/02 04:58:05;;;;;;;121.05;87.18;;;19.30;80.70;;;;;;5062467;28;20035;-65
2024/03/02 05:00:30;;;;;;;123.25;88.03;;;19.30;80.70;;;;;;5059169;28;20078;-66
2024/03/02 05:02:56;;;;;;;123.35;85.57;;;19.30;80.80;;;;;;5064654;28;20117;-66
2024/03/02 05:05:21;;;;;;;122.50;87.10;;;19.30;80.80;;;;;;5069709;28;20028;-65
2024/03/02 05:07:47;;;;;;;120.57;83.65;;;19.30;80.80;;;;;;5062082;28;20021;-66
2024/03/02 05:10:13;;;;;;;116.78;84.30;;;19.30;80.80;;;;;;5069991;28;20546;-66
2024/03/02 05:15:09;;;;;;;121.05;83.22;;;19.40;80.80;;;;;;5062353;28;20488;-65
2024/03/02 05:17:35;;;;;;;115.43;83.32;;;19.40;80.80;;;;;;5061518;28;20484;-65
2024/03/02 05:20:02;;;;;;;114.30;81.18;;;19.40;80.70;;;;;;5061582;28;20027;-66
2024/03/02 05:22:27;;;;;;;118.53;82.75;;;19.40;80.80;;;;;;5059039;28;20430;-65
2024/03/02 05:24:53;;;;;;;109.85;79.72;;;19.40;80.80;;;;;;5058355;28;20100;-66
2024/03/02 05:27:18;;;;;;;115.00;80.00;;;19.40;80.80;;;;;;5058512;28;20119;-66
2024/03/02 05:29:44;;;;;;;119.97;78.93;;;19.40;80.80;;;;;;5061459;28;20017;-63
2024/03/02 05:32:09;;;;;;;117.60;82.20;;;19.40;81.00;;;;;;5061309;28;20043;-65
2024/03/02 05:34:35;;;;;;;112.72;78.00;;;19.40;80.90;;;;;;5057039;28;20454;-66
2024/03/02 05:37:01;;;;;;;108.00;75.65;;;19.40;80.90;;;;;;5054186;28;20765;-66
2024/03/02 05:39:27;;;;;;;116.75;76.50;;;19.40;81.00;;;;;;5057944;28;20036;-65
2024/03/02 05:41:52;;;;;;;113.22;74.57;;;19.40;80.90;;;;;;5058193;28;20026;-66
2024/03/02 05:44:19;;;;;;;109.07;76.50;;;19.40;81.00;;;;;;5060252;28;20040;-67
2024/03/02 05:46:45;;;;;;;106.25;74.05;;;19.40;81.00;;;;;;5058015;28;20013;-67
2024/03/02 05:49:11;;;;;;;102.45;73.40;;;19.40;80.90;;;;;;5057810;28;20025;-67
2024/03/02 05:51:36;;;;;;;103.13;72.90;;;19.40;81.00;;;;;;5060065;28;20099;-67
2024/03/02 05:54:02;;;;;;;104.15;71.60;;;19.40;80.90;;;;;;5060874;28;20086;-67
2024/03/02 05:56:28;;;;;;;106.10;73.45;;;19.40;80.80;;;;;;5060366;28;20029;-65
2024/03/02 06:01:50;;;;;;;60.40;43.65;;;19.50;80.50;;;;;;5040755;28;20036;-65
2024/03/02 06:04:16;;;;;;;46.40;34.80;;;19.00;69.00;;;;;;5067607;28;20024;-65
2024/03/02 06:06:42;;;;;;;44.60;34.80;;;;;;;;;;5057569;28;20027;-65
2024/03/02 06:09:08;;;;;;;44.35;34.40;;;;;;;;;;5056599;28;20503;-65
2024/03/02 06:11:37;;;;;;;45.47;35.22;;;;;;;;;;5057751;28;20111;-65
2024/03/02 06:14:04;;;;;;;44.70;35.72;;;;;;;;;;5059705;28;20023;-65
2024/03/02 06:16:30;;;;;;;47.83;34.60;;;;;;;;;;5058873;28;20021;-65
2024/03/02 06:18:57;;;;;;;47.38;36.35;;;;;;;;;;5059226;28;20385;-64
2024/03/02 06:21:24;;;;;;;42.72;32.85;;;;;;;;;;5056806;28;20490;-64
2024/03/02 06:23:50;;;;;;;46.72;34.95;;;;;;;;;;5059252;28;20046;-64
2024/03/02 06:26:16;;;;;;;43.63;34.25;;;;;;;;;;5059439;28;20024;-66
2024/03/02 06:28:45;;;;;;;41.35;31.55;;;;;;;;;;5055405;28;20027;-65
2024/03/02 06:31:12;;;;;;;39.90;30.55;;;;;;;;;;5059314;28;20492;-64
2024/03/02 06:33:38;;;;;;;44.05;32.25;;;;;;;;;;5060805;28;20020;-64
2024/03/02 06:36:04;;;;;;;45.75;32.20;;;;;;;;;;5068896;28;20090;-65
2024/03/02 06:38:33;;;;;;;54.60;37.88;;;;;;;;;;5057971;28;20029;-62
2024/03/02 06:40:59;;;;;;;59.00;39.75;;;;;;;;;;5062666;28;20651;-62
2024/03/02 06:43:25;;;;;;;60.90;42.33;;;;;;;;;;5060076;28;20112;-62
2024/03/02 06:45:51;;;;;;;60.35;41.15;;;;;;;;;;5062199;28;20103;-62
2024/03/02 06:48:20;;;;;;;55.08;38.00;;;16.80;79.10;;;;;;5067286;28;20020;-63
2024/03/02 06:50:49;;;;;;;56.20;39.80;;;16.90;79.20;;;;;;5063880;28;20039;-62
2024/03/02 06:53:17;;;;;;;57.78;38.05;;;17.00;79.20;;;;;;5072850;28;20021;-61
2024/03/02 06:55:46;;;;;;;53.97;37.50;;;17.20;79.20;;;;;;5064243;28;20504;-63
2024/03/02 06:58:14;;;;;;;52.17;35.90;;;17.20;79.20;;;;;;5067827;28;20024;-63
2024/03/02 07:00:40;;;;;;;51.03;35.22;;;17.40;79.20;;;;;;5063923;28;20029;-64
2024/03/02 07:03:06;;;;;;;50.45;35.10;;;17.50;79.10;;;;;;5063682;28;20036;-62
2024/03/02 07:05:31;;;;;;;54.15;33.28;;;17.60;79.10;;;;;;5066986;28;20037;-63
2024/03/02 07:07:57;;;;;;;48.67;34.28;;;17.70;79.10;;;;;;5067350;28;20074;-64
2024/03/02 07:10:23;;;;;;;49.67;33.97;;;17.70;79.10;;;;;;5066154;28;20024;-63
2024/03/02 07:12:48;;;;;;;49.13;33.08;;;17.80;79.20;;;;;;5068061;28;20128;-64
2024/03/02 07:17:58;;;;;;;44.72;30.40;;;18.00;79.10;;;;;;5067997;28;20545;-64
2024/03/02 07:20:23;;;;;;;46.15;30.23;;;18.00;79.00;;;;;;5065545;28;20032;-64
2024/03/02 07:22:49;;;;;;;45.50;30.23;;;18.00;78.80;;;;;;5063325;28;20507;-64
2024/03/02 07:25:15;;;;;;;46.25;30.65;;;18.00;78.70;;;;;;5064476;28;20021;-63
2024/03/02 07:27:40;;;;;;;42.55;27.92;;;18.10;78.60;;;;;;5067467;28;20119;-63
2024/03/02 07:30:07;;;;;;;38.75;28.98;;;18.20;78.50;;;;;;5075925;28;20040;-64
2024/03/02 07:32:32;;;;;;;40.08;28.27;;;18.20;78.40;;;;;;5063935;28;20131;-64
2024/03/02 07:34:58;;;;;;;37.67;27.15;;;18.20;78.30;;;;;;5064365;28;20104;-64
2024/03/02 07:37:24;;;;;;;43.95;28.67;;;18.30;78.30;;;;;;5065234;28;20036;-64
2024/03/02 07:39:51;;;;;;;43.40;28.45;;;18.30;78.20;;;;;;5075944;28;20028;-64
2024/03/02 07:42:17;;;;;;;41.58;28.10;;;18.30;78.10;;;;;;5066609;28;20107;-64
2024/03/02 07:44:44;;;;;;;35.47;25.80;;;18.40;77.90;;;;;;5064075;28;20017;-63
2024/03/02 07:47:10;;;;;;;35.30;26.15;;;18.40;77.80;;;;;;5064541;28;20322;-64
2024/03/02 07:49:35;;;;;;;37.88;27.00;;;18.40;77.80;;;;;;5067201;28;20036;-64
2024/03/02 07:52:01;;;;;;;38.45;26.42;;;18.40;77.70;;;;;;5067077;28;20039;-64
2024/03/02 07:54:26;;;;;;;38.10;27.02;;;18.50;77.60;;;;;;5065741;28;20024;-64
2024/03/02 07:56:52;;;;;;;38.00;26.65;;;18.50;77.50;;;;;;5063240;28;20086;-65
2024/03/02 07:59:18;;;;;;;36.15;25.73;;;18.50;77.50;;;;;;5059065;28;20063;-64
2024/03/02 08:01:43;;;;;;;33.63;24.90;;;18.50;77.40;;;;;;5063312;28;20028;-65
2024/03/02 08:04:09;;;;;;;37.30;27.02;;;18.50;77.30;;;;;;5069694;28;20074;-64
2024/03/02 08:06:34;;;;;;;36.47;25.85;;;18.50;77.30;;;;;;5061466;28;20021;-64
2024/03/02 08:09:01;;;;;;;31.85;23.75;;;18.50;77.20;;;;;;5061042;28;20546;-63
2024/03/02 08:11:27;;;;;;;33.60;25.10;;;18.50;77.10;;;;;;5060698;28;20037;-64
2024/03/02 08:13:54;;;;;;;35.58;24.73;;;18.50;77.10;;;;;;5064535;28;20476;-64
2024/03/02 08:16:22;;;;;;;30.75;23.30;;;18.50;77.00;;;;;;5063278;28;20028;-64
2024/03/02 08:18:51;;;;;;;30.00;22.67;;;18.50;77.00;;;;;;5061010;28;20033;-63
2024/03/02 08:21:17;;;;;;;33.15;23.98;;;18.50;77.00;;;;;;5060419;28;20033;-64
2024/03/02 08:23:43;;;;;;;33.17;23.77;;;18.50;76.90;;;;;;5064454;28;20075;-64
2024/03/02 08:26:10;;;;;;;32.55;23.08;;;18.60;76.90;;;;;;5064282;28;20025;-64
2024/03/02 08:28:37;;;;;;;33.83;23.10;;;18.50;76.90;;;;;;5060725;28;20025;-63
2024/03/02 08:31:03;;;;;;;32.05;23.05;;;18.50;76.80;;;;;;5058856;28;20060;-64
2024/03/02 08:33:28;;;;;;;28.75;21.95;;;18.60;76.80;;;;;;5071041;28;20131;-64
2024/03/02 08:35:54;;;;;;;28.65;22.08;;;18.60;76.70;;;;;;5063952;28;20480;-63
2024/03/02 08:38:20;;;;;;;30.33;23.25;;;18.60;76.70;;;;;;5063020;28;20054;-63
2024/03/02 08:40:46;;;;;;;32.30;21.80;;;18.60;76.60;;;;;;5059755;28;20037;-63
2024/03/02 08:43:11;;;;;;;28.45;21.90;;;18.60;76.70;;;;;;5060498;28;20354;-63
2024/03/02 08:45:39;;;;;;;31.63;22.48;;;18.60;76.60;;;;;;5063760;28;20017;-63
2024/03/02 08:48:07;;;;;;;28.15;21.33;;;18.60;76.60;;;;;;5064285;28;20028;-64
2024/03/02 08:50:32;;;;;;;27.48;20.23;;;18.50;76.50;;;;;;5060814;28;20046;-64
2024/03/02 08:52:58;;;;;;;29.67;20.77;;;18.60;76.50;;;;;;5059903;28;20116;-64
2024/03/02 08:55:23;;;;;;;29.77;20.33;;;18.60;76.50;;;;;;5061811;28;20408;-64
2024/03/02 08:57:50;;;;;;;28.08;20.67;;;18.60;76.40;;;;;;5065855;28;20491;-64
2024/03/02 09:00:17;;;;;;;28.30;20.67;;;18.60;76.50;;;;;;5062949;28;20186;-64
2024/03/02 09:02:44;;;;;;;29.10;20.85;;;18.60;76.50;;;;;;5059183;28;20029;-64
2024/03/02 09:05:10;;;;;;;28.25;20.48;;;18.60;76.50;;;;;;5060026;28;20063;-65
2024/03/02 09:07:35;;;;;;;27.08;20.48;;;18.60;76.50;;;;;;5063034;28;20095;-66
2024/03/02 09:10:01;;;;;;;24.23;17.70;;;18.60;76.50;;;;;;5063224;28;20524;-64
2024/03/02 09:12:26;;;;;;;22.55;17.38;;;18.60;76.70;;;;;;5068690;28;20039;-65
2024/03/02 09:14:52;;;;;;;23.02;17.02;;;18.60;77.10;;;;;;5059681;28;20028;-66
2024/03/02 09:17:17;;;;;;;27.95;17.38;;;18.60;77.30;;;;;;5060699;28;20417;-65
2024/03/02 09:19:43;;;;;;;27.02;18.40;;;18.60;77.40;;;;;;5070153;28;20074;-64
2024/03/02 09:22:09;;;;;;;30.23;18.15;;;18.60;77.50;;;;;;5062592;28;20025;-64
2024/03/02 09:24:35;;;;;;;23.40;17.88;;;18.60;77.60;;;;;;5063358;28;20021;-65
2024/03/02 09:27:00;;;;;;;21.08;16.23;;;18.60;77.80;;;;;;5065295;28;20773;-64
2024/03/02 09:29:26;;;;;;;26.45;17.05;;;18.60;78.00;;;;;;5061437;28;20025;-65
2024/03/02 09:31:51;;;;;;;23.05;15.20;;;18.70;78.10;;;;;;5064393;28;20523;-65
2024/03/02 09:34:17;;;;;;;21.95;16.75;;;18.60;78.10;;;;;;5062355;28;20395;-65
2024/03/02 09:36:43;;;;;;;23.10;16.50;;;18.70;78.10;;;;;;5058353;28;20016;-65
2024/03/02 09:39:09;;;;;;;23.58;15.80;;;18.70;78.20;;;;;;5057299;28;20108;-65
2024/03/02 09:41:38;;;;;;;22.98;16.73;;;18.70;78.10;;;;;;5061357;28;20024;-66
2024/03/02 09:44:05;;;;;;;20.30;15.90;;;18.70;78.20;;;;;;5062752;28;20027;-65
2024/03/02 09:46:31;;;;;;;21.90;15.73;;;18.70;78.30;;;;;;5059183;28;20090;-65
2024/03/02 09:48:57;;;;;;;25.75;14.80;;;18.70;78.40;;;;;;5065056;28;20028;-65
2024/03/02 09:51:23;;;;;;;21.95;15.95;;;18.70;78.50;;;;;;5070047;28;20151;-65
2024/03/02 09:53:49;;;;;;;20.77;15.57;;;18.70;78.70;;;;;;5062753;28;20073;-67
2024/03/02 09:56:15;;;;;;;29.27;15.32;;;18.80;78.90;;;;;;5062262;28;20523;-67
2024/03/02 09:58:42;;;;;;;21.45;15.60;;;18.80;78.90;;;;;;5059063;28;20419;-63
2024/03/02 10:01:09;;;;;;;34.10;15.57;;;18.80;78.90;;;;;;5058479;28;20024;-65
2024/03/02 10:03:37;;;;;;;27.67;15.43;;;18.90;79.00;;;;;;5062077;28;20495;-66
2024/03/02 10:06:21;;;;;;;27.27;14.82;;;18.90;78.90;;;;;;5062508;28;20032;-67
2024/03/02 10:08:48;;;;;;;24.17;15.18;;;18.90;78.70;;;;;;5058678;28;20104;-66
2024/03/02 10:11:31;;;;;;;24.45;15.27;;;18.90;78.60;;;;;;5058135;28;20147;-64
2024/03/02 10:14:08;;;;;;;21.95;15.45;;;18.90;78.50;;;;;;5062878;28;20404;-67
2024/03/02 10:16:39;;;;;;;24.05;14.07;;;19.00;78.30;;;;;;5060448;28;20025;-66
2024/03/02 10:19:23;;;;;;;20.35;13.13;;;19.00;78.30;;;;;;5059374;28;20033;-67
2024/03/02 10:21:51;;;;;;;27.92;14.93;;;18.90;78.40;;;;;;5056112;28;20089;-66
2024/03/02 10:24:17;;;;;;;29.88;15.68;;;19.00;78.70;;;;;;5063255;28;20024;-66
2024/03/02 10:26:43;;;;;;;24.75;14.52;;;19.00;78.70;;;;;;5061439;28;20028;-66
2024/03/02 10:29:10;;;;;;;29.85;14.05;;;19.00;78.90;;;;;;5067665;28;20025;-65
2024/03/02 10:31:41;;;;;;;20.75;13.63;;;19.00;79.10;;;;;;5067500;28;20024;-65
2024/03/02 10:34:07;;;;;;;25.50;13.75;;;19.00;79.00;;;;;;5075953;28;20068;-68
2024/03/02 10:36:37;;;;;;;22.60;14.13;;;19.00;78.90;;;;;;5074918;28;20084;-65
2024/03/02 10:39:04;;;;;;;19.73;13.15;;;19.00;78.90;;;;;;5072526;28;20053;-65
2024/03/02 10:41:34;;;;;;;24.88;14.18;;;19.00;78.80;;;;;;5075888;28;20363;-65
2024/03/02 10:44:05;;;;;;;21.70;12.10;;;19.00;78.70;;;;;;5062120;28;20028;-66
2024/03/02 10:46:33;;;;;;;23.90;12.93;;;19.00;78.70;;;;;;5059824;28;20052;-66
2024/03/02 10:49:00;;;;;;;21.20;13.45;;;19.00;78.80;;;;;;5058464;28;20031;-66
2024/03/02 10:51:31;;;;;;;23.02;12.43;;;19.00;78.90;;;;;;5059416;28;20457;-66
2024/03/02 10:53:57;;;;;;;;;;;19.00;78.90;;;;;;5062692;28;20033;-65
2024/03/02 10:56:29;;;;;;;16.67;12.13;;;19.00;78.90;;;;;;5068775;28;19905;-66
2024/03/02 10:59:15;;;;;;;27.83;12.82;;;19.00;79.00;;;;;;5058414;28;20078;-65
2024/03/02 11:01:43;;;;;;;23.50;12.82;;;19.00;79.30;;;;;;5052906;28;20025;-64
2024/03/02 11:04:12;;;;;;;21.65;12.48;;;19.00;79.80;;;;;;5057746;28;20400;-66
2024/03/02 11:06:41;;;;;;;27.60;13.10;;;19.00;80.00;;;;;;5050035;28;20017;-65
2024/03/02 11:09:12;;;;;;;22.38;13.70;;;19.00;80.30;;;;;;5049974;28;20083;-66
2024/03/02 11:11:42;;;;;;;19.52;12.75;;;19.00;80.30;;;;;;5057345;28;20021;-66
2024/03/02 11:14:16;;;;;;;23.20;12.98;;;19.00;80.30;;;;;;5050308;28;20025;-66
2024/03/02 11:16:43;;;;;;;21.23;12.20;;;19.00;80.20;;;;;;5054075;28;20104;-63
2024/03/02 11:19:13;;;;;;;21.48;12.00;;;19.10;80.10;;;;;;5055303;28;20023;-66
2024/03/02 11:21:43;;;;;;;19.80;12.07;;;19.00;80.00;;;;;;5048071;28;20057;-66
2024/03/02 11:24:23;;;;;;;18.77;11.77;;;19.00;80.00;;;;;;5053396;28;20445;-66
2024/03/02 11:26:53;;;;;;;16.95;10.88;;;19.00;79.80;;;;;;5051584;28;20029;-66
2024/03/02 11:29:36;;;;;;;17.65;11.30;;;19.10;79.80;;;;;;5049643;28;20025;-66
2024/03/02 11:32:03;;;;;;;17.02;11.68;;;19.00;79.90;;;;;;5050192;28;20040;-66
2024/03/02 11:34:34;;;;;;;19.08;12.02;;;19.00;79.80;;;;;;5054195;28;20017;-66
2024/03/02 11:37:01;;;;;;;26.13;11.97;;;19.10;79.80;;;;;;5053355;28;20028;-66
2024/03/02 11:39:30;;;;;;;17.80;11.48;;;19.10;79.70;;;;;;5053544;28;20068;-66
2024/03/02 11:41:57;;;;;;;20.17;11.63;;;19.10;79.80;;;;;;5052838;28;20056;-67
2024/03/02 11:44:29;;;;;;;17.02;10.88;;;19.10;79.90;;;;;;5053327;28;20029;-66
2024/03/02 11:47:02;;;;;;;16.95;10.55;;;19.10;79.90;;;;;;5052542;28;20063;-65
2024/03/02 11:49:51;;;;;;;19.33;11.65;;;19.10;79.90;;;;;;5052817;28;20021;-67
2024/03/02 11:52:18;;;;;;;14.27;10.32;;;19.10;79.70;;;;;;5052504;28;20029;-66
2024/03/02 11:54:47;;;;;;;15.25;11.02;;;19.10;79.50;;;;;;5053305;28;20029;-66
2024/03/02 11:57:22;;;;;;;16.05;10.18;;;19.10;79.60;;;;;;5055876;28;20489;-66
2024/03/02 11:59:49;;;;;;;14.90;10.63;;;19.10;79.50;;;;;;5052919;28;20550;-67
2024/03/02 12:02:19;;;;;;;14.73;10.27;;;19.10;79.40;;;;;;5052412;28;20400;-66
2024/03/02 12:04:48;;;;;;;17.53;10.37;;;19.10;79.30;;;;;;5057190;28;20139;-66
2024/03/02 12:07:20;;;;;;;18.00;10.52;;;19.00;79.10;;;;;;5058341;28;20025;-67
2024/03/02 12:09:46;;;;;;;30.10;11.13;;;19.10;79.10;;;;;;5082427;23;20082;-63
2024/03/02 12:12:17;;;;;;;16.40;10.02;;;19.10;79.10;;;;;;5071811;28;20029;-64
2024/03/02 12:14:50;;;;;;;13.43;9.68;;;19.10;79.10;;;;;;5070571;28;20103;-63
2024/03/02 12:17:16;;;;;;;13.57;9.77;;;19.00;79.00;;;;;;5069366;28;20099;-65
2024/03/02 12:19:42;;;;;;;16.80;9.45;;;19.00;79.20;;;;;;5066798;28;20044;-63
2024/03/02 12:22:07;;;;;;;16.55;9.93;;;19.00;79.10;;;;;;5055321;28;20468;-64
2024/03/02 12:24:33;;;;;;;15.02;9.73;;;19.00;79.10;;;;;;5062669;28;20114;-64
2024/03/02 12:26:59;;;;;;;14.10;9.80;;;19.00;79.20;;;;;;5063061;28;20025;-64
2024/03/02 12:29:25;;;;;;;14.90;9.45;;;19.00;79.10;;;;;;5060820;28;20031;-64
2024/03/02 12:31:54;;;;;;;12.98;9.05;;;19.00;79.10;;;;;;5051964;28;20028;-64
2024/03/02 12:34:21;;;;;;;13.10;8.80;;;19.00;79.00;;;;;;5060316;28;20041;-64